Forest Hill, Texas
Current Conditions -  °F | °C
As of 5:52 PM on Wednesday 22 Oct 2014 (Local Time) from KFWS Reporting Station
Clear Clear  
Wind Chill: 79°   Ceiling: Unl
Heat Index: 80°   Visibility: 10mi
Dew Point: 57°   Wind: 7mph
Humidity: 47%   Direction: 110°ESE
Pressure: 30.09"   Gusts: NA
Location:  32.66°N, 97.27°W
Report Text: KFWS 222252Z 11006KT 10SM CLR 26/14 A3009
Loading
Personal Weather Stations






























Interactive Weather Map
Tropical Storm Tracking
New forecast layout! Learn more

10-Day Weather Forecast

Advertisements
Track Severe Weather on mobile